sensor_id;sensor_type;location;lat;lon;timestamp;temperature;humidity
16180;DHT22;8196;49.428;10.906;2023-04-30T00:01:21;10.70;99.90
16180;DHT22;8196;49.428;10.906;2023-04-30T00:03:47;10.70;99.90
16180;DHT22;8196;49.428;10.906;2023-04-30T00:06:14;10.70;99.90
16180;DHT22;8196;49.428;10.906;2023-04-30T00:08:41;10.70;99.90
16180;DHT22;8196;49.428;10.906;2023-04-30T00:11:08;10.70;99.90
16180;DHT22;8196;49.428;10.906;2023-04-30T00:13:34;10.60;99.90
16180;DHT22;8196;49.428;10.906;2023-04-30T00:16:01;10.60;99.90
16180;DHT22;8196;49.428;10.906;2023-04-30T00:18:28;10.60;99.90
16180;DHT22;8196;49.428;10.906;2023-04-30T00:20:55;10.60;99.90
16180;DHT22;8196;49.428;10.906;2023-04-30T00:23:21;10.60;99.90
16180;DHT22;8196;49.428;10.906;2023-04-30T00:25:48;10.60;99.90
16180;DHT22;8196;49.428;10.906;2023-04-30T00:28:15;10.50;99.90
16180;DHT22;8196;49.428;10.906;2023-04-30T00:30:41;10.60;99.90
16180;DHT22;8196;49.428;10.906;2023-04-30T00:33:08;10.60;99.90
16180;DHT22;8196;49.428;10.906;2023-04-30T00:35:35;10.60;99.90
16180;DHT22;8196;49.428;10.906;2023-04-30T00:38:02;10.50;99.90
16180;DHT22;8196;49.428;10.906;2023-04-30T00:40:29;10.50;99.90
16180;DHT22;8196;49.428;10.906;2023-04-30T00:42:55;10.50;99.90
16180;DHT22;8196;49.428;10.906;2023-04-30T00:45:22;10.50;99.90
16180;DHT22;8196;49.428;10.906;2023-04-30T00:47:49;10.40;99.90
16180;DHT22;8196;49.428;10.906;2023-04-30T00:50:16;10.50;99.90
16180;DHT22;8196;49.428;10.906;2023-04-30T00:52:44;10.40;99.90
16180;DHT22;8196;49.428;10.906;2023-04-30T00:55:11;10.20;99.90
16180;DHT22;8196;49.428;10.906;2023-04-30T00:57:38;10.30;99.90
16180;DHT22;8196;49.428;10.906;2023-04-30T01:00:07;10.40;99.90
16180;DHT22;8196;49.428;10.906;2023-04-30T01:02:37;10.30;99.90
16180;DHT22;8196;49.428;10.906;2023-04-30T01:05:04;10.30;99.90
16180;DHT22;8196;49.428;10.906;2023-04-30T01:07:33;10.30;99.90
16180;DHT22;8196;49.428;10.906;2023-04-30T01:10:00;10.30;99.90
16180;DHT22;8196;49.428;10.906;2023-04-30T01:15:18;10.20;99.90
16180;DHT22;8196;49.428;10.906;2023-04-30T01:17:48;10.20;99.90
16180;DHT22;8196;49.428;10.906;2023-04-30T01:20:18;10.20;99.90
16180;DHT22;8196;49.428;10.906;2023-04-30T01:22:51;10.20;99.90
16180;DHT22;8196;49.428;10.906;2023-04-30T01:28:15;10.20;99.90
16180;DHT22;8196;49.428;10.906;2023-04-30T01:30:42;9.20;99.90
16180;DHT22;8196;49.428;10.906;2023-04-30T01:33:10;10.20;99.90
16180;DHT22;8196;49.428;10.906;2023-04-30T01:36:08;10.20;99.90
16180;DHT22;8196;49.428;10.906;2023-04-30T01:38:55;10.20;99.90
16180;DHT22;8196;49.428;10.906;2023-04-30T01:41:28;10.20;99.90
16180;DHT22;8196;49.428;10.906;2023-04-30T01:44:18;10.20;99.90
16180;DHT22;8196;49.428;10.906;2023-04-30T01:46:56;10.20;99.90
16180;DHT22;8196;49.428;10.906;2023-04-30T01:52:17;10.00;99.90
16180;DHT22;8196;49.428;10.906;2023-04-30T01:55:07;10.10;99.90
16180;DHT22;8196;49.428;10.906;2023-04-30T01:57:38;10.10;99.90
16180;DHT22;8196;49.428;10.906;2023-04-30T02:00:07;10.10;99.90
16180;DHT22;8196;49.428;10.906;2023-04-30T02:02:37;10.10;99.90
16180;DHT22;8196;49.428;10.906;2023-04-30T02:05:04;10.10;99.90
16180;DHT22;8196;49.428;10.906;2023-04-30T02:07:48;10.10;99.90
16180;DHT22;8196;49.428;10.906;2023-04-30T02:10:17;10.10;99.90
16180;DHT22;8196;49.428;10.906;2023-04-30T02:12:44;10.10;99.90
16180;DHT22;8196;49.428;10.906;2023-04-30T02:15:11;10.10;99.90
16180;DHT22;8196;49.428;10.906;2023-04-30T02:17:38;10.10;99.90
16180;DHT22;8196;49.428;10.906;2023-04-30T02:20:05;10.10;99.90
16180;DHT22;8196;49.428;10.906;2023-04-30T02:22:32;10.10;99.90
16180;DHT22;8196;49.428;10.906;2023-04-30T02:24:59;10.10;99.90
16180;DHT22;8196;49.428;10.906;2023-04-30T02:27:28;10.10;99.90
16180;DHT22;8196;49.428;10.906;2023-04-30T02:29:55;10.70;99.90
16180;DHT22;8196;49.428;10.906;2023-04-30T02:32:22;10.10;99.90
16180;DHT22;8196;49.428;10.906;2023-04-30T02:34:49;10.10;99.90
16180;DHT22;8196;49.428;10.906;2023-04-30T02:37:16;10.10;99.90
16180;DHT22;8196;49.428;10.906;2023-04-30T02:39:42;12.30;99.90
16180;DHT22;8196;49.428;10.906;2023-04-30T02:42:09;10.00;99.90
16180;DHT22;8196;49.428;10.906;2023-04-30T02:44:36;10.00;99.90
16180;DHT22;8196;49.428;10.906;2023-04-30T02:47:03;10.00;99.90
16180;DHT22;8196;49.428;10.906;2023-04-30T02:49:30;10.00;99.90
16180;DHT22;8196;49.428;10.906;2023-04-30T02:51:57;10.00;99.90
16180;DHT22;8196;49.428;10.906;2023-04-30T02:54:23;10.00;99.90
16180;DHT22;8196;49.428;10.906;2023-04-30T02:56:50;10.00;99.90
16180;DHT22;8196;49.428;10.906;2023-04-30T02:59:17;10.00;99.90
16180;DHT22;8196;49.428;10.906;2023-04-30T03:01:44;10.00;99.90
16180;DHT22;8196;49.428;10.906;2023-04-30T03:04:10;10.00;99.90
16180;DHT22;8196;49.428;10.906;2023-04-30T03:06:37;10.00;99.90
16180;DHT22;8196;49.428;10.906;2023-04-30T03:09:04;9.90;99.90
16180;DHT22;8196;49.428;10.906;2023-04-30T03:11:31;9.90;99.90
16180;DHT22;8196;49.428;10.906;2023-04-30T03:13:58;9.90;99.90
16180;DHT22;8196;49.428;10.906;2023-04-30T03:16:24;9.90;99.90
16180;DHT22;8196;49.428;10.906;2023-04-30T03:18:51;9.90;99.90
16180;DHT22;8196;49.428;10.906;2023-04-30T03:21:18;9.90;99.90
16180;DHT22;8196;49.428;10.906;2023-04-30T03:23:45;9.90;99.90
16180;DHT22;8196;49.428;10.906;2023-04-30T03:26:11;9.90;99.90
16180;DHT22;8196;49.428;10.906;2023-04-30T03:28:38;9.80;99.90
16180;DHT22;8196;49.428;10.906;2023-04-30T03:31:05;9.90;99.90
16180;DHT22;8196;49.428;10.906;2023-04-30T03:33:32;9.80;99.90
16180;DHT22;8196;49.428;10.906;2023-04-30T03:35:59;9.80;99.90
16180;DHT22;8196;49.428;10.906;2023-04-30T03:38:25;9.70;99.90
16180;DHT22;8196;49.428;10.906;2023-04-30T03:40:52;9.70;99.90
16180;DHT22;8196;49.428;10.906;2023-04-30T03:43:19;9.70;99.90
16180;DHT22;8196;49.428;10.906;2023-04-30T03:45:46;9.70;99.90
16180;DHT22;8196;49.428;10.906;2023-04-30T03:48:13;9.60;99.90
16180;DHT22;8196;49.428;10.906;2023-04-30T03:50:40;9.60;99.90
16180;DHT22;8196;49.428;10.906;2023-04-30T03:53:06;6.80;99.90
16180;DHT22;8196;49.428;10.906;2023-04-30T03:55:33;9.50;99.90
16180;DHT22;8196;49.428;10.906;2023-04-30T03:58:00;9.50;99.90
16180;DHT22;8196;49.428;10.906;2023-04-30T04:00:27;9.60;99.90
16180;DHT22;8196;49.428;10.906;2023-04-30T04:02:54;9.40;99.90
16180;DHT22;8196;49.428;10.906;2023-04-30T04:05:20;9.40;99.90
16180;DHT22;8196;49.428;10.906;2023-04-30T04:07:47;9.30;99.90
16180;DHT22;8196;49.428;10.906;2023-04-30T04:10:14;7.70;99.90
16180;DHT22;8196;49.428;10.906;2023-04-30T04:12:41;9.30;99.90
16180;DHT22;8196;49.428;10.906;2023-04-30T04:15:08;9.30;99.90
16180;DHT22;8196;49.428;10.906;2023-04-30T04:17:35;9.30;99.90
16180;DHT22;8196;49.428;10.906;2023-04-30T04:20:01;9.30;99.90
16180;DHT22;8196;49.428;10.906;2023-04-30T04:22:31;9.30;99.90
16180;DHT22;8196;49.428;10.906;2023-04-30T04:24:58;9.40;99.90
16180;DHT22;8196;49.428;10.906;2023-04-30T04:27:24;9.50;99.90
16180;DHT22;8196;49.428;10.906;2023-04-30T04:29:51;9.50;99.90
16180;DHT22;8196;49.428;10.906;2023-04-30T04:32:18;9.60;99.90
16180;DHT22;8196;49.428;10.906;2023-04-30T04:34:45;9.60;99.90
16180;DHT22;8196;49.428;10.906;2023-04-30T04:37:12;9.70;99.90
16180;DHT22;8196;49.428;10.906;2023-04-30T04:39:39;9.70;99.90
16180;DHT22;8196;49.428;10.906;2023-04-30T04:42:06;9.80;99.90
16180;DHT22;8196;49.428;10.906;2023-04-30T04:44:33;9.80;99.90
16180;DHT22;8196;49.428;10.906;2023-04-30T04:47:00;9.90;99.90
16180;DHT22;8196;49.428;10.906;2023-04-30T04:49:29;9.90;99.90
16180;DHT22;8196;49.428;10.906;2023-04-30T04:51:56;10.00;99.90
16180;DHT22;8196;49.428;10.906;2023-04-30T04:54:23;10.00;99.90
16180;DHT22;8196;49.428;10.906;2023-04-30T04:56:50;10.10;99.90
16180;DHT22;8196;49.428;10.906;2023-04-30T04:59:17;9.70;99.90
16180;DHT22;8196;49.428;10.906;2023-04-30T05:01:44;10.20;99.90
16180;DHT22;8196;49.428;10.906;2023-04-30T05:04:11;10.30;99.90
16180;DHT22;8196;49.428;10.906;2023-04-30T05:06:40;10.30;99.90
16180;DHT22;8196;49.428;10.906;2023-04-30T05:09:08;10.40;99.90
16180;DHT22;8196;49.428;10.906;2023-04-30T05:11:38;10.50;99.90
16180;DHT22;8196;49.428;10.906;2023-04-30T05:14:07;10.50;99.90
16180;DHT22;8196;49.428;10.906;2023-04-30T05:16:33;10.60;99.90
16180;DHT22;8196;49.428;10.906;2023-04-30T05:19:00;10.70;99.90
16180;DHT22;8196;49.428;10.906;2023-04-30T05:21:27;10.80;99.90
16180;DHT22;8196;49.428;10.906;2023-04-30T05:23:55;10.90;99.90
16180;DHT22;8196;49.428;10.906;2023-04-30T05:26:22;11.00;99.90
16180;DHT22;8196;49.428;10.906;2023-04-30T05:28:49;11.10;99.90
16180;DHT22;8196;49.428;10.906;2023-04-30T05:31:17;11.10;99.90
16180;DHT22;8196;49.428;10.906;2023-04-30T05:33:46;11.30;99.90
16180;DHT22;8196;49.428;10.906;2023-04-30T05:36:13;11.40;99.90
16180;DHT22;8196;49.428;10.906;2023-04-30T05:38:40;11.60;99.90
16180;DHT22;8196;49.428;10.906;2023-04-30T05:41:09;11.70;99.90
16180;DHT22;8196;49.428;10.906;2023-04-30T05:43:36;11.80;99.90
16180;DHT22;8196;49.428;10.906;2023-04-30T05:46:03;11.90;99.90
16180;DHT22;8196;49.428;10.906;2023-04-30T05:48:30;11.90;99.90
16180;DHT22;8196;49.428;10.906;2023-04-30T05:50:56;11.90;99.90
16180;DHT22;8196;49.428;10.906;2023-04-30T05:53:23;12.00;99.90
16180;DHT22;8196;49.428;10.906;2023-04-30T05:55:50;12.10;99.90
16180;DHT22;8196;49.428;10.906;2023-04-30T05:58:17;12.20;99.90
16180;DHT22;8196;49.428;10.906;2023-04-30T06:00:43;12.20;99.90
16180;DHT22;8196;49.428;10.906;2023-04-30T06:03:10;12.30;99.90
16180;DHT22;8196;49.428;10.906;2023-04-30T06:05:37;12.40;99.90
16180;DHT22;8196;49.428;10.906;2023-04-30T06:08:07;12.50;99.90
16180;DHT22;8196;49.428;10.906;2023-04-30T06:10:34;12.50;99.90
16180;DHT22;8196;49.428;10.906;2023-04-30T06:13:00;12.50;99.90
16180;DHT22;8196;49.428;10.906;2023-04-30T06:15:33;12.60;99.90
16180;DHT22;8196;49.428;10.906;2023-04-30T06:18:00;12.50;99.90
16180;DHT22;8196;49.428;10.906;2023-04-30T06:20:27;12.50;99.90
16180;DHT22;8196;49.428;10.906;2023-04-30T06:22:54;12.60;99.90
16180;DHT22;8196;49.428;10.906;2023-04-30T06:25:20;12.60;99.90
16180;DHT22;8196;49.428;10.906;2023-04-30T06:27:47;12.50;99.90
16180;DHT22;8196;49.428;10.906;2023-04-30T06:30:14;12.50;99.90
16180;DHT22;8196;49.428;10.906;2023-04-30T06:32:41;12.50;99.90
16180;DHT22;8196;49.428;10.906;2023-04-30T06:35:11;12.50;99.90
16180;DHT22;8196;49.428;10.906;2023-04-30T06:37:38;12.60;99.90
16180;DHT22;8196;49.428;10.906;2023-04-30T06:40:05;12.60;99.90
16180;DHT22;8196;49.428;10.906;2023-04-30T06:42:33;12.90;99.90
16180;DHT22;8196;49.428;10.906;2023-04-30T06:45:01;12.90;99.90
16180;DHT22;8196;49.428;10.906;2023-04-30T06:47:30;13.00;99.90
16180;DHT22;8196;49.428;10.906;2023-04-30T06:50:00;12.90;99.90
16180;DHT22;8196;49.428;10.906;2023-04-30T06:52:28;13.00;99.90
16180;DHT22;8196;49.428;10.906;2023-04-30T06:54:55;13.10;99.90
16180;DHT22;8196;49.428;10.906;2023-04-30T06:57:22;13.20;99.90
16180;DHT22;8196;49.428;10.906;2023-04-30T06:59:50;13.30;99.90
16180;DHT22;8196;49.428;10.906;2023-04-30T07:02:17;13.40;99.90
16180;DHT22;8196;49.428;10.906;2023-04-30T07:04:47;13.40;99.90
16180;DHT22;8196;49.428;10.906;2023-04-30T07:07:15;12.70;99.90
16180;DHT22;8196;49.428;10.906;2023-04-30T07:09:41;13.60;99.90
16180;DHT22;8196;49.428;10.906;2023-04-30T07:12:08;13.80;99.90
16180;DHT22;8196;49.428;10.906;2023-04-30T07:14:36;13.90;99.90
16180;DHT22;8196;49.428;10.906;2023-04-30T07:17:03;14.10;99.90
16180;DHT22;8196;49.428;10.906;2023-04-30T07:19:30;14.10;99.40
16180;DHT22;8196;49.428;10.906;2023-04-30T07:21:58;14.10;99.60
16180;DHT22;8196;49.428;10.906;2023-04-30T07:24:24;14.20;99.20
16180;DHT22;8196;49.428;10.906;2023-04-30T07:26:51;14.40;99.10
16180;DHT22;8196;49.428;10.906;2023-04-30T07:29:18;14.50;97.90
16180;DHT22;8196;49.428;10.906;2023-04-30T07:31:47;14.50;97.90
16180;DHT22;8196;49.428;10.906;2023-04-30T07:34:14;14.50;97.00
16180;DHT22;8196;49.428;10.906;2023-04-30T07:36:40;14.60;96.90
16180;DHT22;8196;49.428;10.906;2023-04-30T07:39:07;18.10;98.10
16180;DHT22;8196;49.428;10.906;2023-04-30T07:41:34;14.70;95.60
16180;DHT22;8196;49.428;10.906;2023-04-30T07:44:01;14.80;95.60
16180;DHT22;8196;49.428;10.906;2023-04-30T07:46:27;15.00;95.50
16180;DHT22;8196;49.428;10.906;2023-04-30T07:48:54;15.10;93.90
16180;DHT22;8196;49.428;10.906;2023-04-30T07:51:21;15.10;93.60
16180;DHT22;8196;49.428;10.906;2023-04-30T07:53:48;15.00;92.70
16180;DHT22;8196;49.428;10.906;2023-04-30T07:56:14;14.90;92.70
16180;DHT22;8196;49.428;10.906;2023-04-30T07:58:41;14.90;92.80
16180;DHT22;8196;49.428;10.906;2023-04-30T08:01:08;15.00;92.50
16180;DHT22;8196;49.428;10.906;2023-04-30T08:03:35;15.00;91.80
16180;DHT22;8196;49.428;10.906;2023-04-30T08:06:03;15.10;91.90
16180;DHT22;8196;49.428;10.906;2023-04-30T08:08:30;15.10;91.40
16180;DHT22;8196;49.428;10.906;2023-04-30T08:10:57;15.10;92.00
16180;DHT22;8196;49.428;10.906;2023-04-30T08:13:24;15.20;91.90
16180;DHT22;8196;49.428;10.906;2023-04-30T08:15:50;15.30;91.40
16180;DHT22;8196;49.428;10.906;2023-04-30T08:18:17;15.50;91.10
16180;DHT22;8196;49.428;10.906;2023-04-30T08:20:44;15.50;91.30
16180;DHT22;8196;49.428;10.906;2023-04-30T08:23:11;15.70;90.50
16180;DHT22;8196;49.428;10.906;2023-04-30T08:25:37;15.60;90.30
16180;DHT22;8196;49.428;10.906;2023-04-30T08:28:05;15.80;86.40
16180;DHT22;8196;49.428;10.906;2023-04-30T08:30:32;15.80;86.10
16180;DHT22;8196;49.428;10.906;2023-04-30T08:32:59;15.90;85.20
16180;DHT22;8196;49.428;10.906;2023-04-30T08:35:26;16.00;83.20
16180;DHT22;8196;49.428;10.906;2023-04-30T08:37:55;12.30;77.90
16180;DHT22;8196;49.428;10.906;2023-04-30T08:40:21;15.70;81.20
16180;DHT22;8196;49.428;10.906;2023-04-30T08:43:08;16.20;82.10
16180;DHT22;8196;49.428;10.906;2023-04-30T08:45:38;16.40;81.80
16180;DHT22;8196;49.428;10.906;2023-04-30T08:48:09;17.00;75.70
16180;DHT22;8196;49.428;10.906;2023-04-30T08:50:36;17.20;76.00
16180;DHT22;8196;49.428;10.906;2023-04-30T08:53:03;17.30;73.50
16180;DHT22;8196;49.428;10.906;2023-04-30T08:55:33;17.40;70.70
16180;DHT22;8196;49.428;10.906;2023-04-30T08:58:00;17.40;67.60
16180;DHT22;8196;49.428;10.906;2023-04-30T09:00:27;17.50;68.00
16180;DHT22;8196;49.428;10.906;2023-04-30T09:02:54;17.50;67.60
16180;DHT22;8196;49.428;10.906;2023-04-30T09:05:20;17.90;64.90
16180;DHT22;8196;49.428;10.906;2023-04-30T09:07:47;18.10;61.20
16180;DHT22;8196;49.428;10.906;2023-04-30T09:10:31;18.30;62.00
16180;DHT22;8196;49.428;10.906;2023-04-30T09:12:58;18.10;61.40
16180;DHT22;8196;49.428;10.906;2023-04-30T09:15:27;17.80;61.20
16180;DHT22;8196;49.428;10.906;2023-04-30T09:18:11;17.40;62.20
16180;DHT22;8196;49.428;10.906;2023-04-30T09:20:57;17.30;62.80
16180;DHT22;8196;49.428;10.906;2023-04-30T09:23:24;17.30;63.00
16180;DHT22;8196;49.428;10.906;2023-04-30T09:25:51;17.20;60.00
16180;DHT22;8196;49.428;10.906;2023-04-30T09:28:18;17.50;60.60
16180;DHT22;8196;49.428;10.906;2023-04-30T09:30:49;17.50;59.50
16180;DHT22;8196;49.428;10.906;2023-04-30T09:33:17;18.30;59.80
16180;DHT22;8196;49.428;10.906;2023-04-30T09:35:44;19.20;58.10
16180;DHT22;8196;49.428;10.906;2023-04-30T09:38:31;19.50;55.70
16180;DHT22;8196;49.428;10.906;2023-04-30T09:40:59;18.00;55.10
16180;DHT22;8196;49.428;10.906;2023-04-30T09:43:27;19.70;56.10
16180;DHT22;8196;49.428;10.906;2023-04-30T09:45:57;20.20;54.50
16180;DHT22;8196;49.428;10.906;2023-04-30T09:48:25;21.10;53.40
16180;DHT22;8196;49.428;10.906;2023-04-30T09:50:54;22.30;50.90
16180;DHT22;8196;49.428;10.906;2023-04-30T09:53:21;22.50;48.60
16180;DHT22;8196;49.428;10.906;2023-04-30T09:55:50;23.40;48.60
16180;DHT22;8196;49.428;10.906;2023-04-30T09:58:18;24.30;46.70
16180;DHT22;8196;49.428;10.906;2023-04-30T10:00:45;25.50;44.70
16180;DHT22;8196;49.428;10.906;2023-04-30T10:03:15;26.30;40.20
16180;DHT22;8196;49.428;10.906;2023-04-30T10:05:44;26.50;38.80
16180;DHT22;8196;49.428;10.906;2023-04-30T10:10:58;25.20;36.30
16180;DHT22;8196;49.428;10.906;2023-04-30T10:13:32;23.80;37.90
16180;DHT22;8196;49.428;10.906;2023-04-30T10:16:07;23.70;37.90
16180;DHT22;8196;49.428;10.906;2023-04-30T10:18:39;23.50;38.30
16180;DHT22;8196;49.428;10.906;2023-04-30T10:21:08;23.90;39.40
16180;DHT22;8196;49.428;10.906;2023-04-30T10:23:38;24.20;37.80
16180;DHT22;8196;49.428;10.906;2023-04-30T10:26:09;24.20;38.60
16180;DHT22;8196;49.428;10.906;2023-04-30T10:28:37;24.80;37.80
16180;DHT22;8196;49.428;10.906;2023-04-30T10:31:05;25.30;37.20
16180;DHT22;8196;49.428;10.906;2023-04-30T10:39:22;25.30;37.60
16180;DHT22;8196;49.428;10.906;2023-04-30T10:41:49;25.40;37.00
16180;DHT22;8196;49.428;10.906;2023-04-30T10:44:21;25.50;36.10
16180;DHT22;8196;49.428;10.906;2023-04-30T10:46:48;25.70;37.30
16180;DHT22;8196;49.428;10.906;2023-04-30T10:49:15;25.60;36.50
16180;DHT22;8196;49.428;10.906;2023-04-30T10:51:50;25.70;35.80
16180;DHT22;8196;49.428;10.906;2023-04-30T10:54:24;25.20;37.40
16180;DHT22;8196;49.428;10.906;2023-04-30T10:56:53;26.30;38.50
16180;DHT22;8196;49.428;10.906;2023-04-30T10:59:22;28.00;36.50
16180;DHT22;8196;49.428;10.906;2023-04-30T11:01:58;28.40;33.10
16180;DHT22;8196;49.428;10.906;2023-04-30T11:04:25;28.30;32.20
16180;DHT22;8196;49.428;10.906;2023-04-30T11:09:33;27.20;32.40
16180;DHT22;8196;49.428;10.906;2023-04-30T11:12:03;26.50;34.20
16180;DHT22;8196;49.428;10.906;2023-04-30T11:14:31;25.60;35.30
16180;DHT22;8196;49.428;10.906;2023-04-30T11:16:59;25.10;36.40
16180;DHT22;8196;49.428;10.906;2023-04-30T11:19:28;25.90;36.60
16180;DHT22;8196;49.428;10.906;2023-04-30T11:27:21;30.60;31.30
16180;DHT22;8196;49.428;10.906;2023-04-30T11:29:49;32.10;29.60
16180;DHT22;8196;49.428;10.906;2023-04-30T11:32:19;31.60;27.50
16180;DHT22;8196;49.428;10.906;2023-04-30T11:34:47;31.30;29.20
16180;DHT22;8196;49.428;10.906;2023-04-30T11:40:04;31.00;30.80
16180;DHT22;8196;49.428;10.906;2023-04-30T11:42:32;31.80;28.70
16180;DHT22;8196;49.428;10.906;2023-04-30T11:45:05;32.30;27.60
16180;DHT22;8196;49.428;10.906;2023-04-30T11:47:50;32.80;26.20
16180;DHT22;8196;49.428;10.906;2023-04-30T11:50:19;32.80;27.00
16180;DHT22;8196;49.428;10.906;2023-04-30T11:52:53;31.90;26.70
16180;DHT22;8196;49.428;10.906;2023-04-30T11:55:23;30.70;26.90
16180;DHT22;8196;49.428;10.906;2023-04-30T11:57:51;29.50;28.40
16180;DHT22;8196;49.428;10.906;2023-04-30T12:00:21;28.00;30.00
16180;DHT22;8196;49.428;10.906;2023-04-30T12:02:51;26.50;32.50
16180;DHT22;8196;49.428;10.906;2023-04-30T12:05:20;25.50;34.80
16180;DHT22;8196;49.428;10.906;2023-04-30T12:07:48;27.80;30.40
16180;DHT22;8196;49.428;10.906;2023-04-30T12:10:17;27.80;30.90
16180;DHT22;8196;49.428;10.906;2023-04-30T12:12:45;27.50;31.40
16180;DHT22;8196;49.428;10.906;2023-04-30T12:15:15;27.10;30.80
16180;DHT22;8196;49.428;10.906;2023-04-30T12:17:43;28.50;31.90
16180;DHT22;8196;49.428;10.906;2023-04-30T12:20:12;28.70;32.00
16180;DHT22;8196;49.428;10.906;2023-04-30T12:22:41;29.90;28.00
16180;DHT22;8196;49.428;10.906;2023-04-30T12:25:16;29.70;28.30
16180;DHT22;8196;49.428;10.906;2023-04-30T12:27:46;29.30;27.80
16180;DHT22;8196;49.428;10.906;2023-04-30T12:30:13;29.00;28.20
16180;DHT22;8196;49.428;10.906;2023-04-30T12:32:44;29.00;29.30
16180;DHT22;8196;49.428;10.906;2023-04-30T12:35:14;30.20;28.30
16180;DHT22;8196;49.428;10.906;2023-04-30T12:37:44;30.80;27.10
16180;DHT22;8196;49.428;10.906;2023-04-30T12:40:12;30.90;27.90
16180;DHT22;8196;49.428;10.906;2023-04-30T12:42:41;30.30;27.20
16180;DHT22;8196;49.428;10.906;2023-04-30T12:45:09;29.60;28.30
16180;DHT22;8196;49.428;10.906;2023-04-30T12:47:39;28.60;27.70
16180;DHT22;8196;49.428;10.906;2023-04-30T12:50:09;28.30;28.30
16180;DHT22;8196;49.428;10.906;2023-04-30T12:52:36;26.80;29.40
16180;DHT22;8196;49.428;10.906;2023-04-30T12:55:20;25.80;32.70
16180;DHT22;8196;49.428;10.906;2023-04-30T13:00:50;29.60;29.20
16180;DHT22;8196;49.428;10.906;2023-04-30T13:03:19;31.00;29.40
16180;DHT22;8196;49.428;10.906;2023-04-30T13:05:50;33.20;27.10
16180;DHT22;8196;49.428;10.906;2023-04-30T13:08:18;31.90;25.80
16180;DHT22;8196;49.428;10.906;2023-04-30T13:10:47;30.70;26.70
16180;DHT22;8196;49.428;10.906;2023-04-30T13:13:15;30.20;27.30
16180;DHT22;8196;49.428;10.906;2023-04-30T13:15:43;29.80;27.90
16180;DHT22;8196;49.428;10.906;2023-04-30T13:18:10;28.80;28.50
16180;DHT22;8196;49.428;10.906;2023-04-30T13:20:37;29.00;28.90
16180;DHT22;8196;49.428;10.906;2023-04-30T13:23:05;30.60;27.40
16180;DHT22;8196;49.428;10.906;2023-04-30T13:25:32;31.80;26.20
16180;DHT22;8196;49.428;10.906;2023-04-30T13:28:00;33.30;27.00
16180;DHT22;8196;49.428;10.906;2023-04-30T13:30:27;35.20;24.30
16180;DHT22;8196;49.428;10.906;2023-04-30T13:32:54;36.00;24.20
16180;DHT22;8196;49.428;10.906;2023-04-30T13:35:21;35.50;24.80
16180;DHT22;8196;49.428;10.906;2023-04-30T13:37:47;32.90;25.30
16180;DHT22;8196;49.428;10.906;2023-04-30T13:40:15;32.50;26.30
16180;DHT22;8196;49.428;10.906;2023-04-30T13:42:41;30.00;27.30
16180;DHT22;8196;49.428;10.906;2023-04-30T13:45:09;27.50;29.80
16180;DHT22;8196;49.428;10.906;2023-04-30T13:47:35;27.00;30.40
16180;DHT22;8196;49.428;10.906;2023-04-30T13:50:03;27.20;31.00
16180;DHT22;8196;49.428;10.906;2023-04-30T13:52:30;28.50;29.80
16180;DHT22;8196;49.428;10.906;2023-04-30T13:54:57;30.60;28.10
16180;DHT22;8196;49.428;10.906;2023-04-30T13:57:24;32.30;26.80
16180;DHT22;8196;49.428;10.906;2023-04-30T13:59:51;33.00;24.90
16180;DHT22;8196;49.428;10.906;2023-04-30T14:02:18;32.70;25.40
16180;DHT22;8196;49.428;10.906;2023-04-30T14:04:45;32.20;25.80
16180;DHT22;8196;49.428;10.906;2023-04-30T14:07:28;34.00;25.10
16180;DHT22;8196;49.428;10.906;2023-04-30T14:09:54;33.90;25.50
16180;DHT22;8196;49.428;10.906;2023-04-30T14:12:22;34.20;24.10
16180;DHT22;8196;49.428;10.906;2023-04-30T14:14:50;33.50;24.50
16180;DHT22;8196;49.428;10.906;2023-04-30T14:17:16;32.40;25.20
16180;DHT22;8196;49.428;10.906;2023-04-30T14:22:13;28.10;28.60
16180;DHT22;8196;49.428;10.906;2023-04-30T14:36:57;30.50;27.00
16180;DHT22;8196;49.428;10.906;2023-04-30T14:56:41;24.30;32.90
16180;DHT22;8196;49.428;10.906;2023-04-30T14:59:10;23.90;34.70
16180;DHT22;8196;49.428;10.906;2023-04-30T15:01:37;24.70;34.30
16180;DHT22;8196;49.428;10.906;2023-04-30T15:04:04;26.20;32.00
16180;DHT22;8196;49.428;10.906;2023-04-30T15:06:31;27.00;30.10
16180;DHT22;8196;49.428;10.906;2023-04-30T15:08:58;28.10;29.30
16180;DHT22;8196;49.428;10.906;2023-04-30T15:11:25;28.50;29.20
16180;DHT22;8196;49.428;10.906;2023-04-30T15:13:53;29.20;28.00
16180;DHT22;8196;49.428;10.906;2023-04-30T15:16:20;29.30;28.70
16180;DHT22;8196;49.428;10.906;2023-04-30T15:18:47;29.80;27.50
16180;DHT22;8196;49.428;10.906;2023-04-30T15:21:14;29.40;28.10
16180;DHT22;8196;49.428;10.906;2023-04-30T15:23:41;28.60;27.80
16180;DHT22;8196;49.428;10.906;2023-04-30T15:26:08;28.30;28.90
16180;DHT22;8196;49.428;10.906;2023-04-30T15:28:35;27.90;28.80
16180;DHT22;8196;49.428;10.906;2023-04-30T15:31:02;27.70;28.80
16180;DHT22;8196;49.428;10.906;2023-04-30T15:36:04;26.40;30.40
16180;DHT22;8196;49.428;10.906;2023-04-30T15:38:31;26.30;30.00
16180;DHT22;8196;49.428;10.906;2023-04-30T15:41:00;26.40;30.20
16180;DHT22;8196;49.428;10.906;2023-04-30T15:43:27;27.10;30.20
16180;DHT22;8196;49.428;10.906;2023-04-30T15:45:55;28.10;29.10
16180;DHT22;8196;49.428;10.906;2023-04-30T15:48:22;29.10;28.50
16180;DHT22;8196;49.428;10.906;2023-04-30T15:50:49;29.10;28.40
16180;DHT22;8196;49.428;10.906;2023-04-30T15:53:16;29.20;28.30
16180;DHT22;8196;49.428;10.906;2023-04-30T15:55:42;28.90;28.40
16180;DHT22;8196;49.428;10.906;2023-04-30T15:58:11;28.30;29.10
16180;DHT22;8196;49.428;10.906;2023-04-30T16:00:38;28.20;29.30
16180;DHT22;8196;49.428;10.906;2023-04-30T16:03:05;28.00;29.20
16180;DHT22;8196;49.428;10.906;2023-04-30T16:05:33;27.60;29.20
16180;DHT22;8196;49.428;10.906;2023-04-30T16:08:06;26.80;30.20
16180;DHT22;8196;49.428;10.906;2023-04-30T16:10:33;26.80;30.80
16180;DHT22;8196;49.428;10.906;2023-04-30T16:13:00;26.30;30.60
16180;DHT22;8196;49.428;10.906;2023-04-30T16:15:26;25.70;31.30
16180;DHT22;8196;49.428;10.906;2023-04-30T16:17:57;24.30;33.60
16180;DHT22;8196;49.428;10.906;2023-04-30T16:20:24;24.10;34.40
16180;DHT22;8196;49.428;10.906;2023-04-30T16:22:53;23.20;35.60
16180;DHT22;8196;49.428;10.906;2023-04-30T16:25:20;22.50;37.20
16180;DHT22;8196;49.428;10.906;2023-04-30T16:27:48;21.10;38.10
16180;DHT22;8196;49.428;10.906;2023-04-30T16:30:15;21.00;38.80
16180;DHT22;8196;49.428;10.906;2023-04-30T16:32:42;20.60;39.80
16180;DHT22;8196;49.428;10.906;2023-04-30T16:35:09;20.30;40.60
16180;DHT22;8196;49.428;10.906;2023-04-30T16:37:36;19.80;41.80
16180;DHT22;8196;49.428;10.906;2023-04-30T16:40:03;19.70;42.30
16180;DHT22;8196;49.428;10.906;2023-04-30T16:42:31;19.50;43.30
16180;DHT22;8196;49.428;10.906;2023-04-30T16:44:59;19.40;43.20